Rumely, Michigan
Current Conditions -  °F | °C
As of 11:45 AM on Wednesday 22 Oct 2014 (Local Time) from KSAW Reporting Station
Moderate Fog Moderate Fog  
Wind Chill: 31°   Ceiling: 100
Heat Index: 37°   Visibility: 0.25mi
Dew Point: 36°   Wind: 8mph
Humidity: 93%   Direction: 190°S
Pressure: 30.36"   Gusts: NA
Location:  46.35°N, 87.03°W
Report Text: KSAW 221545Z 19007KT 1/4SM FG OVC001 03/02 A3036
Loading
Personal Weather Stations






























Interactive Weather Map
Tropical Storm Tracking
New forecast layout! Learn more

10-Day Weather Forecast

Advertisements
Track Severe Weather on mobile